Pagrindinis puslapis
METAR-TAF:

METAR-TAF

Oro uostai :

Jezdas, Iranas

platuma: 31-54N, ilguma: 054-24E, Aukštis: 1238 m

Dabartinis oras

Ataskaita buvo paskelbta 12 minutes, ne 20:00 UTC
Vėjas 4 kt iš Pietų/Pietryčių
Temperatūra 30°C
Drėgmė 12%
Slėgis 1015 hPa
Matomumas 10 km arba daugiau
nėra debesų žemiau 1500 m ir nėra kamuolinių lietaus debesų

METAR: OIYY 222000Z 15004KT CAVOK 30/M02 Q1015

Laikas: 23:42 (20:12 UTC)


TAF: trūkstamas

Orai ataskaitas ir orų prognozės (METAR, TAF).

turimą stotys yra geltonos ir raudonos taškus žemėlapyje.

Perkelti pele per norėdami pamatyti stoties vardą.

Tada spustelėkite, norėdami matyti oro stebėjimo ir prognozės.

Norėdami pakeisti žemėlapį: spustelėkite ant žalios mygtukų su juodo kryžiaus žemyn,; žalią mygtuką su brūkšneliu, jei norite nutolinti; arba žalių rodyklių gretimoms žemėlapius.


METAR-TAF: